Multan Weather



Multan's Current Weather

Temprature 25.94o smoke

smoke

Rain: 0 %

Min Temprature25.94o
Max Temprature25.94o
Humidity61
Wind Speed0 m/h
Sun Rise05:15:59
Sun Set19:06:09
Current Time: 24-May-2022 06:56:03
Lat/Lon: 30.1956, 71.4753




Multan's Geo Location



Multan's Weather Forecast

Time Overall Temp Min Temp Max Temp Humidity Wind Speed Rain
24-May-2022 (Tue)
08:00:00 clear sky 25.940 25.940 28.470 61 3.9 m/h 0 %
11:00:00 clear sky 28.890 28.890 34.800 51 4.16 m/h 0 %
14:00:00 clear sky 34.520 34.520 38.810 31 3.65 m/h 0 %
17:00:00 clear sky 39.260 39.260 39.260 13 3.15 m/h 0 %
20:00:00 clear sky 35.260 35.260 35.260 17 3.64 m/h 0 %
23:00:00 clear sky 31.960 31.960 31.960 24 5.01 m/h 0 %
25-May-2022 (Wed)
02:00:00 clear sky 29.800 29.800 29.800 28 3.48 m/h 0 %
05:00:00 clear sky 28.410 28.410 28.410 30 2.21 m/h 0 %
08:00:00 clear sky 32.940 32.940 32.940 22 2.9 m/h 0 %
11:00:00 clear sky 38.230 38.230 38.230 16 2.59 m/h 0 %
14:00:00 clear sky 41.850 41.850 41.850 12 1.1 m/h 0 %
17:00:00 clear sky 42.470 42.470 42.470 10 1.35 m/h 0 %
20:00:00 clear sky 38.420 38.420 38.420 13 2.86 m/h 0 %
23:00:00 clear sky 35.440 35.440 35.440 15 3.47 m/h 0 %
26-May-2022 (Thu)
02:00:00 clear sky 33.050 33.050 33.050 18 4.54 m/h 0 %
05:00:00 clear sky 31.650 31.650 31.650 20 4.76 m/h 0 %
08:00:00 clear sky 36.280 36.280 36.280 17 4.59 m/h 0 %
11:00:00 clear sky 42.720 42.720 42.720 11 3.38 m/h 0 %
14:00:00 clear sky 46.030 46.030 46.030 7 3.15 m/h 0 %
17:00:00 clear sky 46.430 46.430 46.430 5 2.44 m/h 0 %
20:00:00 clear sky 40.980 40.980 40.980 8 1.7 m/h 0 %
23:00:00 few clouds 38.590 38.590 38.590 13 2.4 m/h 0 %
27-May-2022 (Fri)
02:00:00 scattered clouds 37.010 37.010 37.010 24 6.58 m/h 0 %
05:00:00 few clouds 33.400 33.400 33.400 41 5.7 m/h 0 %
08:00:00 clear sky 35.940 35.940 35.940 35 5.61 m/h 0 %
11:00:00 clear sky 43.820 43.820 43.820 14 3.51 m/h 0 %
14:00:00 clear sky 48.340 48.340 48.340 5 1.5 m/h 0 %
17:00:00 clear sky 48.860 48.860 48.860 4 4.57 m/h 0 %
20:00:00 clear sky 42.970 42.970 42.970 3 6.33 m/h 0 %
23:00:00 clear sky 40.990 40.990 40.990 3 7.4 m/h 0 %
28-May-2022 (Sat)
02:00:00 clear sky 37.660 37.660 37.660 3 6.35 m/h 0 %
05:00:00 clear sky 33.790 33.790 33.790 5 4.9 m/h 0 %
08:00:00 clear sky 40.010 40.010 40.010 5 5.81 m/h 0 %
11:00:00 clear sky 44.280 44.280 44.280 11 5.66 m/h 0 %
14:00:00 clear sky 47.510 47.510 47.510 6 5.55 m/h 0 %
17:00:00 clear sky 47.470 47.470 47.470 4 5.72 m/h 0 %
20:00:00 clear sky 41.090 41.090 41.090 4 4.08 m/h 0 %
23:00:00 clear sky 37.770 37.770 37.770 12 8.27 m/h 0 %
29-May-2022 (Sun)
02:00:00 clear sky 35.660 35.660 35.660 17 7.29 m/h 0 %
05:00:00 clear sky 32.770 32.770 32.770 25 6.45 m/h 0 %

Famous Cities (61)